createdAt,value
2022-10-23T00:01:46.215Z,12.50
2022-10-23T00:04:20.867Z,12.60
2022-10-23T00:06:49.663Z,12.50
2022-10-23T00:09:22.814Z,12.60
2022-10-23T00:11:51.976Z,12.60
2022-10-23T00:14:22.362Z,12.50
2022-10-23T00:16:50.365Z,12.50
2022-10-23T00:19:23.274Z,12.50
2022-10-23T00:21:50.908Z,12.50
2022-10-23T00:24:18.528Z,12.50
2022-10-23T00:26:46.084Z,12.50
2022-10-23T00:29:13.651Z,12.50
2022-10-23T00:31:41.240Z,12.50
2022-10-23T00:34:09.106Z,12.50
2022-10-23T00:36:37.369Z,12.50
2022-10-23T00:39:08.422Z,12.50
2022-10-23T00:41:36.052Z,12.40
2022-10-23T00:44:08.491Z,12.40
2022-10-23T00:46:37.838Z,12.40
2022-10-23T00:49:06.974Z,12.30
2022-10-23T00:51:44.262Z,12.30
2022-10-23T00:54:29.159Z,12.30
2022-10-23T00:57:01.099Z,12.20
2022-10-23T00:59:29.491Z,12.10
2022-10-23T01:01:59.652Z,12.10
2022-10-23T01:04:28.106Z,12.10
2022-10-23T01:07:19.961Z,12.10
2022-10-23T01:09:57.642Z,12.10
2022-10-23T01:12:37.309Z,12.20
2022-10-23T01:15:21.098Z,12.20
2022-10-23T01:17:55.610Z,12.10
2022-10-23T01:20:46.646Z,12.10
2022-10-23T01:23:38.251Z,12.20
2022-10-23T01:26:09.931Z,12.20
2022-10-23T01:29:05.286Z,12.20
2022-10-23T01:32:00.017Z,12.30
2022-10-23T01:34:51.732Z,12.30
2022-10-23T01:37:28.410Z,12.40
2022-10-23T01:40:00.243Z,12.40
2022-10-23T01:42:36.345Z,12.30
2022-10-23T01:45:10.862Z,12.30
2022-10-23T01:47:39.619Z,12.40
2022-10-23T01:50:10.378Z,12.50
2022-10-23T01:52:38.008Z,12.50
2022-10-23T01:55:07.693Z,12.50
2022-10-23T01:57:37.479Z,12.50
2022-10-23T02:00:12.056Z,12.50
2022-10-23T02:02:42.606Z,12.50
2022-10-23T02:05:15.991Z,12.30
2022-10-23T02:07:46.529Z,12.20
2022-10-23T02:10:15.300Z,12.20
2022-10-23T02:12:58.416Z,12.20
2022-10-23T02:15:33.483Z,12.20
2022-10-23T02:18:22.723Z,12.00
2022-10-23T02:21:00.825Z,12.00
2022-10-23T02:23:37.884Z,11.80
2022-10-23T02:26:12.064Z,11.80
2022-10-23T02:29:09.336Z,11.70
2022-10-23T02:31:37.094Z,11.60
2022-10-23T02:34:04.663Z,11.60
2022-10-23T02:36:32.421Z,11.60
2022-10-23T02:38:59.968Z,11.60
2022-10-23T02:41:46.558Z,11.60
2022-10-23T02:44:32.298Z,11.60
2022-10-23T02:47:11.881Z,11.50
2022-10-23T02:50:02.500Z,11.50
2022-10-23T02:52:51.026Z,11.50
2022-10-23T02:55:45.014Z,11.50
2022-10-23T02:58:27.832Z,11.40
2022-10-23T03:01:04.760Z,11.30
2022-10-23T03:03:38.095Z,11.30
2022-10-23T03:06:06.198Z,11.30
2022-10-23T03:09:04.883Z,11.30
2022-10-23T03:11:32.517Z,11.30
2022-10-23T03:14:00.149Z,11.40
2022-10-23T03:16:27.765Z,11.30
2022-10-23T03:18:57.955Z,11.40
2022-10-23T03:21:25.534Z,11.30
2022-10-23T03:23:54.356Z,11.30
2022-10-23T03:26:21.918Z,11.40
2022-10-23T03:28:49.481Z,11.50
2022-10-23T03:31:17.078Z,11.50
2022-10-23T03:33:44.628Z,11.50
2022-10-23T03:36:12.206Z,11.40
2022-10-23T03:38:39.763Z,11.40
2022-10-23T03:41:07.336Z,11.40
2022-10-23T03:43:34.882Z,11.40
2022-10-23T03:46:02.614Z,11.40
2022-10-23T03:48:30.264Z,11.30
2022-10-23T03:51:00.825Z,11.20
2022-10-23T03:53:31.029Z,11.20
2022-10-23T03:55:58.690Z,11.20
2022-10-23T03:58:26.322Z,11.10
2022-10-23T04:00:53.959Z,11.10
2022-10-23T04:03:21.508Z,11.10
2022-10-23T04:05:52.100Z,11.10
2022-10-23T04:08:20.289Z,11.10
2022-10-23T04:10:48.058Z,11.10
2022-10-23T04:13:18.143Z,11.00
2022-10-23T04:15:52.948Z,11.00
2022-10-23T04:18:20.537Z,11.00
2022-10-23T04:20:49.266Z,11.00
2022-10-23T04:23:22.985Z,11.00
2022-10-23T04:25:50.529Z,11.10
2022-10-23T04:28:18.067Z,11.00
2022-10-23T04:30:45.671Z,11.00
2022-10-23T04:33:13.230Z,10.90
2022-10-23T04:35:40.836Z,10.90
2022-10-23T04:38:08.395Z,10.80
2022-10-23T04:40:36.662Z,10.70
2022-10-23T04:43:04.840Z,10.70
2022-10-23T04:45:32.574Z,10.70
2022-10-23T04:48:00.478Z,10.60
2022-10-23T04:50:28.099Z,10.60
2022-10-23T04:52:56.810Z,10.60
2022-10-23T04:55:27.446Z,10.50
2022-10-23T04:57:55.239Z,10.50
2022-10-23T05:00:23.261Z,10.40
2022-10-23T05:02:53.498Z,10.40
2022-10-23T05:05:21.374Z,10.50
2022-10-23T05:07:50.082Z,10.40
2022-10-23T05:10:17.969Z,10.50
2022-10-23T05:12:45.753Z,10.50
2022-10-23T05:15:16.542Z,10.50
2022-10-23T05:17:48.647Z,10.50
2022-10-23T05:20:22.944Z,10.60
2022-10-23T05:22:54.516Z,10.80
2022-10-23T05:25:22.327Z,10.80
2022-10-23T05:27:52.328Z,11.00
2022-10-23T05:30:20.063Z,11.10
2022-10-23T05:32:52.918Z,11.10
2022-10-23T05:35:23.232Z,11.20
2022-10-23T05:37:55.539Z,11.30
2022-10-23T05:40:24.449Z,11.30
2022-10-23T05:42:52.272Z,11.40
2022-10-23T05:45:20.553Z,11.30
2022-10-23T05:47:49.265Z,11.20
2022-10-23T05:50:17.159Z,11.20
2022-10-23T05:52:51.422Z,11.20
2022-10-23T05:55:19.183Z,11.00
2022-10-23T05:57:46.936Z,11.00
2022-10-23T06:00:15.108Z,10.90
2022-10-23T06:02:42.882Z,11.00
2022-10-23T06:05:10.764Z,11.00
2022-10-23T06:07:42.400Z,11.10
2022-10-23T06:10:10.425Z,11.10
2022-10-23T06:12:38.176Z,11.20
2022-10-23T06:15:10.399Z,11.30
2022-10-23T06:17:42.612Z,11.30
2022-10-23T06:20:10.936Z,11.30
2022-10-23T06:22:39.118Z,11.20
2022-10-23T06:25:07.647Z,11.20
2022-10-23T06:27:35.549Z,11.10
2022-10-23T06:30:03.930Z,11.20
2022-10-23T06:32:32.502Z,11.20
2022-10-23T06:35:00.437Z,11.10
2022-10-23T06:37:28.318Z,11.30
2022-10-23T06:39:58.752Z,11.20
2022-10-23T06:42:26.471Z,11.40
2022-10-23T06:44:54.213Z,11.40
2022-10-23T06:47:21.987Z,11.40
2022-10-23T06:49:50.040Z,11.40
2022-10-23T06:52:41.679Z,11.60
2022-10-23T06:55:06.747Z,11.70
2022-10-23T06:57:34.576Z,11.80
2022-10-23T07:00:05.435Z,11.90
2022-10-23T07:02:33.570Z,11.80
2022-10-23T07:05:01.426Z,12.00
2022-10-23T07:07:35.207Z,12.10
2022-10-23T07:10:03.272Z,12.20
2022-10-23T07:12:33.833Z,12.40
2022-10-23T07:15:03.437Z,12.50
2022-10-23T07:17:31.339Z,12.60
2022-10-23T07:19:59.493Z,12.70
2022-10-23T07:22:27.257Z,12.80
2022-10-23T07:24:54.929Z,12.80
2022-10-23T07:27:22.635Z,12.90
2022-10-23T07:29:52.054Z,12.90
2022-10-23T07:32:20.144Z,13.00
2022-10-23T07:34:50.927Z,12.90
2022-10-23T07:37:19.004Z,13.00
2022-10-23T07:39:55.866Z,12.90
2022-10-23T07:42:26.173Z,13.00
2022-10-23T07:44:54.240Z,13.00
2022-10-23T07:47:22.938Z,13.00
2022-10-23T07:49:50.855Z,13.10
2022-10-23T07:52:19.099Z,13.10
2022-10-23T07:54:47.060Z,13.00
2022-10-23T07:57:15.167Z,13.10
2022-10-23T07:59:43.699Z,13.20
2022-10-23T08:02:15.878Z,13.30
2022-10-23T08:04:48.905Z,13.40
2022-10-23T08:10:08.578Z,13.30
2022-10-23T08:12:38.367Z,13.30
2022-10-23T08:15:06.683Z,13.40
2022-10-23T08:18:42.779Z,13.50
2022-10-23T08:20:40.870Z,13.50
2022-10-23T08:23:17.221Z,13.40
2022-10-23T08:25:48.338Z,13.60
2022-10-23T08:28:19.089Z,13.50
2022-10-23T08:30:47.557Z,13.60
2022-10-23T08:33:19.940Z,13.60
2022-10-23T08:35:50.254Z,13.80
2022-10-23T08:38:19.655Z,13.80
2022-10-23T08:40:57.588Z,13.90
2022-10-23T08:43:45.652Z,13.90
2022-10-23T08:46:17.913Z,14.00
2022-10-23T08:48:56.512Z,14.20
2022-10-23T08:51:39.499Z,14.30
2022-10-23T08:54:20.838Z,14.40
2022-10-23T08:56:57.726Z,14.50
2022-10-23T08:59:40.041Z,14.60
2022-10-23T09:02:46.696Z,14.70
2022-10-23T09:05:55.850Z,14.80
2022-10-23T09:08:59.349Z,15.00
2022-10-23T09:11:58.790Z,15.20
2022-10-23T09:14:55.360Z,15.30
2022-10-23T09:17:41.541Z,15.40
2022-10-23T09:20:24.756Z,15.50
2022-10-23T09:23:01.863Z,15.70
2022-10-23T09:25:41.261Z,15.90
2022-10-23T09:28:30.555Z,16.10
2022-10-23T09:31:12.785Z,16.30
2022-10-23T09:33:40.875Z,16.60
2022-10-23T09:36:13.623Z,16.50
2022-10-23T09:38:47.383Z,16.60
2022-10-23T09:41:37.561Z,16.70
2022-10-23T09:44:07.873Z,16.70
2022-10-23T09:46:46.809Z,16.70
2022-10-23T09:49:20.377Z,16.60
2022-10-23T09:52:05.364Z,16.60
2022-10-23T09:54:54.646Z,16.50
2022-10-23T09:57:40.561Z,16.50
2022-10-23T10:00:14.498Z,16.40
2022-10-23T10:02:44.607Z,16.30
2022-10-23T10:05:29.739Z,16.10
2022-10-23T10:08:17.915Z,16.10
2022-10-23T10:10:51.077Z,15.90
2022-10-23T10:13:34.122Z,15.80
2022-10-23T10:16:22.950Z,15.70
2022-10-23T10:19:15.617Z,15.70
2022-10-23T10:21:43.211Z,15.70
2022-10-23T10:24:40.957Z,15.70
2022-10-23T10:27:45.083Z,15.80
2022-10-23T10:30:24.737Z,15.90
2022-10-23T10:33:21.834Z,16.00
2022-10-23T10:36:28.840Z,16.20
2022-10-23T10:39:05.592Z,16.20
2022-10-23T10:42:02.636Z,16.20
2022-10-23T10:44:51.700Z,16.30
2022-10-23T10:47:25.673Z,16.50
2022-10-23T10:50:11.437Z,16.60
2022-10-23T10:52:56.409Z,16.90
2022-10-23T10:55:43.853Z,17.40
2022-10-23T10:58:37.106Z,17.40
2022-10-23T11:01:26.621Z,17.50
2022-10-23T11:04:13.446Z,17.30
2022-10-23T11:06:49.446Z,17.40
2022-10-23T11:09:25.288Z,17.50
2022-10-23T11:11:53.238Z,17.70
2022-10-23T11:14:26.614Z,17.80
2022-10-23T11:17:21.551Z,17.70
2022-10-23T11:20:03.914Z,17.50
2022-10-23T11:22:55.783Z,17.50
2022-10-23T11:25:37.057Z,17.50
2022-10-23T11:28:19.736Z,17.60
2022-10-23T11:31:04.741Z,17.90
2022-10-23T11:34:29.458Z,18.20
2022-10-23T11:37:01.976Z,18.60
2022-10-23T11:39:38.337Z,19.20
2022-10-23T11:42:07.644Z,20.30
2022-10-23T11:44:40.609Z,22.20
2022-10-23T11:47:27.101Z,24.00
2022-10-23T11:50:07.118Z,24.80
2022-10-23T11:53:09.358Z,24.30
2022-10-23T11:55:58.432Z,24.10
2022-10-23T11:58:41.062Z,24.60
2022-10-23T12:01:36.908Z,26.60
2022-10-23T12:04:13.692Z,28.10
2022-10-23T12:07:16.630Z,28.90
2022-10-23T12:09:58.572Z,29.40
2022-10-23T12:12:35.759Z,29.70
2022-10-23T12:15:31.007Z,29.90
2022-10-23T12:18:17.011Z,30.40
2022-10-23T12:20:50.493Z,30.10
2022-10-23T12:23:48.203Z,30.30
2022-10-23T12:26:38.244Z,30.60
2022-10-23T12:29:20.636Z,30.70
2022-10-23T12:32:16.483Z,31.30
2022-10-23T12:35:30.287Z,31.40
2022-10-23T12:38:15.810Z,30.10
2022-10-23T12:40:56.766Z,28.40
2022-10-23T12:43:28.488Z,27.20
2022-10-23T12:46:17.772Z,26.00
2022-10-23T12:51:48.608Z,26.20
2022-10-23T12:54:32.668Z,25.70
2022-10-23T12:57:01.877Z,25.00
2022-10-23T12:59:39.483Z,24.60
2022-10-23T13:02:23.836Z,24.70
2022-10-23T13:04:54.911Z,24.90
2022-10-23T13:07:28.090Z,24.80
2022-10-23T13:09:56.714Z,24.50
2022-10-23T13:12:35.161Z,24.70
2022-10-23T13:15:25.720Z,24.30
2022-10-23T13:18:00.238Z,23.80
2022-10-23T13:20:41.939Z,23.70
2022-10-23T13:23:17.279Z,23.80
2022-10-23T13:26:02.399Z,24.70
2022-10-23T13:28:56.516Z,25.90
2022-10-23T13:31:29.066Z,26.60
2022-10-23T13:34:00.702Z,26.80
2022-10-23T13:36:30.865Z,26.10
2022-10-23T13:39:10.906Z,25.80
2022-10-23T13:41:44.573Z,25.50
2022-10-23T13:44:14.155Z,26.30
2022-10-23T13:46:42.566Z,26.20
2022-10-23T13:49:10.338Z,25.70
2022-10-23T13:51:51.888Z,24.60
2022-10-23T15:11:24.432Z,18.80
2022-10-23T15:14:36.065Z,18.80
2022-10-23T15:23:27.738Z,18.80
2022-10-23T15:27:54.135Z,19.10
2022-10-23T15:32:20.178Z,19.20
2022-10-23T15:35:14.344Z,19.10
2022-10-23T15:38:44.291Z,19.00
2022-10-23T15:42:29.633Z,18.90
2022-10-23T15:49:36.922Z,18.70
2022-10-23T15:56:34.731Z,18.30
2022-10-23T16:07:58.244Z,17.80
2022-10-23T16:14:00.718Z,17.60
2022-10-23T17:24:13.581Z,16.90
2022-10-23T17:26:41.666Z,16.90
2022-10-23T17:29:10.591Z,16.90
2022-10-23T17:31:40.728Z,16.80
2022-10-23T17:34:11.512Z,16.80
2022-10-23T17:36:47.575Z,16.80
2022-10-23T17:39:21.296Z,16.80
2022-10-23T17:41:48.956Z,16.80
2022-10-23T17:44:16.695Z,16.80
2022-10-23T17:46:47.101Z,16.80
2022-10-23T17:49:14.679Z,16.70
2022-10-23T17:51:42.265Z,16.60
2022-10-23T17:54:14.478Z,16.60
2022-10-23T17:56:42.038Z,16.50
2022-10-23T17:59:17.929Z,16.40
2022-10-23T18:01:49.510Z,16.40
2022-10-23T18:04:27.925Z,16.20
2022-10-23T18:06:55.522Z,16.20
2022-10-23T18:09:23.510Z,16.10
2022-10-23T18:11:53.700Z,16.10
2022-10-23T18:14:22.032Z,16.10
2022-10-23T18:16:50.115Z,16.00
2022-10-23T18:19:18.572Z,16.00
2022-10-23T18:21:49.089Z,16.00
2022-10-23T18:24:19.844Z,15.90
2022-10-23T18:26:50.731Z,15.90
2022-10-23T18:32:31.292Z,15.80
2022-10-23T18:34:58.964Z,15.70
2022-10-23T18:37:28.875Z,15.60
2022-10-23T18:39:59.423Z,15.60
2022-10-23T18:42:27.125Z,15.50
2022-10-23T18:44:56.107Z,15.50
2022-10-23T18:47:23.674Z,15.40
2022-10-23T18:49:54.297Z,15.30
2022-10-23T18:52:21.950Z,15.30
2022-10-23T18:54:49.524Z,15.30
2022-10-23T18:57:17.160Z,15.20
2022-10-23T18:59:44.800Z,15.20
2022-10-23T19:02:22.760Z,15.10
2022-10-23T19:04:55.746Z,15.10
2022-10-23T19:07:23.456Z,15.10
2022-10-23T19:10:06.642Z,15.10
2022-10-23T19:12:48.230Z,15.00
2022-10-23T19:15:23.061Z,15.00
2022-10-23T19:17:59.715Z,15.00
2022-10-23T19:23:00.849Z,15.00
2022-10-23T19:25:32.969Z,15.00
2022-10-23T19:28:02.975Z,14.90
2022-10-23T19:30:31.276Z,15.00
2022-10-23T19:32:59.946Z,15.00
2022-10-23T19:35:28.109Z,15.00
2022-10-23T19:37:55.765Z,15.00
2022-10-23T19:40:24.229Z,14.90
2022-10-23T19:42:51.848Z,14.90
2022-10-23T19:45:19.990Z,15.00
2022-10-23T19:47:47.912Z,14.90
2022-10-23T19:50:15.995Z,15.00
2022-10-23T19:52:43.557Z,15.00
2022-10-23T19:55:11.206Z,15.20
2022-10-23T19:57:38.845Z,15.10
2022-10-23T20:00:07.744Z,15.20
2022-10-23T20:02:38.346Z,15.20
2022-10-23T20:05:07.435Z,15.20
2022-10-23T20:07:36.208Z,15.20
2022-10-23T20:10:07.179Z,15.30
2022-10-23T20:12:35.243Z,15.30
2022-10-23T20:15:04.094Z,15.30
2022-10-23T20:17:32.562Z,15.40
2022-10-23T20:20:00.403Z,15.30
2022-10-23T20:22:29.387Z,15.40
2022-10-23T20:24:57.013Z,15.40
2022-10-23T20:27:28.026Z,15.40
2022-10-23T20:29:55.737Z,15.30
2022-10-23T20:32:23.399Z,15.30
2022-10-23T20:34:53.673Z,15.30
2022-10-23T20:37:21.285Z,15.20
2022-10-23T20:39:48.907Z,15.20
2022-10-23T20:42:16.466Z,15.20
2022-10-23T20:44:44.039Z,15.20
2022-10-23T20:47:13.965Z,15.20
2022-10-23T20:49:44.613Z,15.10
2022-10-23T20:52:16.935Z,15.10
2022-10-23T20:54:44.780Z,15.10
2022-10-23T20:57:12.320Z,15.00
2022-10-23T20:59:39.910Z,15.00
2022-10-23T21:02:10.156Z,15.00
2022-10-23T21:04:37.926Z,14.90
2022-10-23T21:07:10.006Z,14.80
2022-10-23T21:09:39.056Z,14.70
2022-10-23T21:12:07.529Z,14.60
2022-10-23T21:14:40.837Z,14.60
2022-10-23T21:17:10.576Z,14.70
2022-10-23T21:19:41.692Z,14.70
2022-10-23T21:22:09.307Z,14.80
2022-10-23T21:24:39.656Z,14.80
2022-10-23T21:27:07.252Z,14.80
2022-10-23T21:29:34.820Z,14.80
2022-10-23T21:32:05.450Z,14.90
2022-10-23T21:34:33.086Z,14.90
2022-10-23T21:37:17.640Z,14.90
2022-10-23T21:39:46.254Z,15.00
2022-10-23T21:42:15.222Z,15.00
2022-10-23T21:44:42.928Z,15.00
2022-10-23T21:47:10.659Z,15.00
2022-10-23T21:49:38.368Z,15.00
2022-10-23T21:52:05.941Z,15.10
2022-10-23T21:54:36.583Z,15.10
2022-10-23T21:57:04.379Z,15.10
2022-10-23T21:59:36.075Z,15.10
2022-10-23T22:02:07.222Z,15.00
2022-10-23T22:04:34.894Z,15.00
2022-10-23T22:07:05.520Z,15.00
2022-10-23T22:09:34.017Z,15.00
2022-10-23T22:12:01.701Z,14.90
2022-10-23T22:14:29.647Z,14.80
2022-10-23T22:16:57.354Z,14.80
2022-10-23T22:19:25.478Z,14.90
2022-10-23T22:21:53.035Z,14.80
2022-10-23T22:24:20.892Z,14.80
2022-10-23T22:26:54.908Z,14.80
2022-10-23T22:29:25.597Z,14.70
2022-10-23T22:31:53.776Z,14.60
2022-10-23T22:37:17.421Z,14.80
2022-10-23T22:39:44.984Z,14.90
2022-10-23T22:42:14.512Z,14.90
2022-10-23T22:44:47.965Z,14.80
2022-10-23T22:47:15.594Z,14.70
2022-10-23T22:49:43.157Z,14.60
2022-10-23T22:52:10.775Z,14.50
2022-10-23T22:54:38.366Z,14.40
2022-10-23T22:57:05.947Z,14.30
2022-10-23T22:59:33.498Z,14.30
2022-10-23T23:02:01.094Z,14.20
2022-10-23T23:04:44.056Z,14.20
2022-10-23T23:07:12.898Z,14.20
2022-10-23T23:09:42.526Z,14.10
2022-10-23T23:12:12.880Z,14.00
2022-10-23T23:14:41.286Z,14.10
2022-10-23T23:17:09.480Z,14.00
2022-10-23T23:19:37.088Z,14.00
2022-10-23T23:22:04.930Z,14.10
2022-10-23T23:24:32.858Z,14.10
2022-10-23T23:27:00.398Z,14.20
2022-10-23T23:29:31.015Z,14.20
2022-10-23T23:31:58.614Z,14.40
2022-10-23T23:34:26.301Z,14.40
2022-10-23T23:36:53.910Z,14.50
2022-10-23T23:39:24.371Z,14.50
2022-10-23T23:41:51.930Z,14.60
2022-10-23T23:44:19.530Z,14.70
2022-10-23T23:46:47.131Z,14.70
2022-10-23T23:49:14.671Z,14.80
2022-10-23T23:51:42.389Z,14.90
2022-10-23T23:54:10.374Z,15.00
2022-10-23T23:56:38.000Z,14.90
2022-10-23T23:59:05.598Z,15.00
